Latest Weather Observations for Roxby Downs

IDS60801

Issued at 10:02 am CDT Sunday 21 December 2014 (issued every 30 minutes, with the page automatically refreshed every 10 minutes)

About weather observations | Map of weather stations | Latest weather observations for SA | Other Formats
Station Details ID: 016096 Name: OLYMPIC DAM AERODROME Lat: -30.48 Lon: 136.88 Height: 98.5 m
Data from the previous 72 hours. | See also: Recent months at Roxby Downs
Date/Time
CDT
Temp
°C
App
Temp
°C
Dew
Point
Rel
Hum
%
Delta-T
°C
Wind Press
QNH
hPa
Press
MSL
hPa
Rain
since 9 am
mm
Dir
 
Spd
km/h
Gust
km/h
Spd
kts
Gust
kts
21/10:00am 32.3 26.0 -0.7 12 15.9 NNE 22 30 12 16 1012.0 1011.5 0.0
21/09:30am 31.1 25.4 -0.5 13 15.1 NNE 19 26 10 14 1012.3 1011.8 0.0
21/09:00am 30.1 24.3 -0.3 14 14.5 NE 20 30 11 16 1012.2 1011.7 0.0
21/08:30am 28.7 23.4 -0.5 15 13.8 NNE 17 26 9 14 1012.0 1011.5 0.0
21/08:00am 27.2 22.4 0.1 17 12.8 NE 15 20 8 11 1011.5 1011.0 0.0
21/07:30am 26.0 21.9 -0.1 18 12.1 NE 11 15 6 8 1011.1 1010.6 0.0
21/07:00am 25.4 21.3 0.1 19 11.8 NE 11 13 6 7 1010.8 1010.3 0.0
21/06:30am 24.7 21.1 0.3 20 11.3 NE 9 11 5 6 1010.5 1010.0 0.0
21/06:00am 24.2 20.6 0.5 21 11.0 NE 9 13 5 7 1010.3 1009.8 0.0
21/05:30am 24.2 20.2 0.5 21 11.0 NE 11 13 6 7 1009.9 1009.4 0.0
21/05:00am 25.2 20.7 0.0 19 11.7 NE 13 17 7 9 1009.9 1009.4 0.0
21/04:30am 25.6 20.8 0.3 19 11.8 ENE 15 20 8 11 1009.6 1009.1 0.0
21/04:00am 25.7 21.3 0.4 19 11.8 ENE 13 15 7 8 1009.8 1009.3 0.0
21/03:30am 26.2 21.4 0.0 18 12.2 ENE 15 22 8 12 1009.9 1009.4 0.0
21/03:00am 26.4 21.2 0.2 18 12.3 NE 17 22 9 12 1009.9 1009.4 0.0
21/02:30am 27.2 21.6 0.1 17 12.8 ENE 19 26 10 14 1010.2 1009.7 0.0
21/02:00am 27.5 22.3 0.3 17 12.9 ENE 17 24 9 13 1010.5 1010.0 0.0
21/01:30am 27.2 22.0 0.1 17 12.8 ENE 17 24 9 13 1010.5 1010.0 0.0
21/01:00am 24.9 20.7 -1.0 18 11.7 NE 11 15 6 8 1010.6 1010.1 0.0
21/12:30am 25.7 21.8 -1.2 17 12.2 NE 9 11 5 6 1010.9 1010.4 0.0
21/12:00am 27.3 22.6 -1.6 15 13.2 ENE 13 17 7 9 1010.8 1010.3 0.0
 
Date/Time
CDT
Temp
°C
App
Temp
°C
Dew
Point
Rel
Hum
%
Delta-T
°C
Wind Press
QNH
hPa
Press
MSL
hPa
Rain
since 9 am
mm
Dir
 
Spd
km/h
Gust
km/h
Spd
kts
Gust
kts
20/11:30pm 28.6 23.2 -1.5 14 13.9 E 17 20 9 11 1010.9 1010.4 0.0
20/11:00pm 29.0 23.6 -1.2 14 14.1 E 17 20 9 11 1011.0 1010.5 0.0
20/10:30pm 29.6 24.5 -1.7 13 14.5 E 15 19 8 10 1011.2 1010.7 0.0
20/10:00pm 29.9 25.2 -1.5 13 14.7 E 13 17 7 9 1011.2 1010.7 0.0
20/09:30pm 31.1 26.0 -1.6 12 15.4 E 15 22 8 12 1011.0 1010.5 0.0
20/09:00pm 32.0 26.7 -0.9 12 15.8 E 17 22 9 12 1010.9 1010.4 0.0
20/08:30pm 32.7 28.8 -1.6 11 16.3 E 9 13 5 7 1010.8 1010.3 0.0
20/08:00pm 34.2 30.7 -1.7 10 17.2 ENE 7 9 4 5 1010.5 1010.0 0.0
20/07:30pm 35.1 32.0 -2.5 9 17.9 SSE 4 7 2 4 1010.4 1009.9 0.0
20/07:00pm 35.2 31.2 -2.4 9 18.0 ENE 9 11 5 6 1010.3 1009.8 0.0
20/06:30pm 35.3 31.9 -2.3 9 18.0 NNW 6 13 3 7 1010.4 1009.9 0.0
20/06:00pm 35.4 30.6 -2.3 9 18.1 ENE 13 20 7 11 1010.4 1009.9 0.0
20/05:30pm 35.0 30.2 -2.6 9 17.9 NNW 13 17 7 9 1010.7 1010.2 0.0
20/05:00pm 35.0 31.0 -2.6 9 17.9 NW 9 17 5 9 1011.2 1010.7 0.0
20/04:30pm 35.1 30.3 -2.5 9 17.9 N 13 24 7 13 1011.5 1011.0 0.0
20/04:00pm 34.6 30.7 -1.4 10 17.4 NNW 9 20 5 11 1011.7 1011.2 0.0
20/03:30pm 35.1 30.1 -1.1 10 17.7 ESE 15 22 8 12 1012.4 1011.9 0.0
20/03:00pm 33.7 29.7 -2.1 10 17.0 NE 9 24 5 13 1012.7 1012.2 0.0
20/02:30pm 34.3 30.9 -1.7 10 17.3 ENE 6 13 3 7 1013.3 1012.8 0.0
20/02:00pm 32.9 27.9 -1.4 11 16.4 N 15 26 8 14 1013.9 1013.4 0.0
20/01:30pm 32.3 27.7 -0.7 12 15.9 NNW 13 20 7 11 1014.2 1013.7 0.0
20/01:00pm 33.1 28.6 -0.1 12 16.2 NE 13 22 7 12 1014.6 1014.1 0.0
20/12:30pm 31.5 27.0 -0.2 13 15.3 NNE 13 20 7 11 1015.1 1014.6 0.0
20/12:00pm 31.3 26.0 -0.4 13 15.2 NE 17 30 9 16 1015.5 1015.0 0.0
20/11:30am 31.3 25.6 -0.4 13 15.2 NE 19 28 10 15 1015.8 1015.3 0.0
20/11:00am 30.5 25.1 1.0 15 14.4 ENE 19 32 10 17 1016.1 1015.5 0.0
20/10:30am 29.4 23.5 1.8 17 13.6 ENE 22 30 12 16 1016.3 1015.7 0.0
20/10:00am 27.8 22.0 2.1 19 12.6 ENE 22 32 12 17 1016.6 1016.0 0.0
20/09:30am 27.6 21.9 2.6 20 12.3 ENE 22 30 12 16 1016.7 1016.1 0.0
20/09:00am 26.4 20.4 3.6 23 11.4 ENE 24 32 13 17 1016.8 1016.2 0.0
20/08:30am 25.1 20.1 4.8 27 10.2 E 20 28 11 15 1016.7 1016.1 0.0
20/08:00am 23.9 19.6 5.3 30 9.4 ESE 17 22 9 12 1016.6 1016.0 0.0
20/07:30am 21.6 18.4 6.7 38 7.6 ESE 13 19 7 10 1016.5 1015.9 0.0
20/07:00am 18.3 18.0 8.8 54 5.0 CALM 0 0 0 0 1016.5 1015.9 0.0
20/06:30am 17.2 15.3 8.9 58 4.3 SSE 9 11 5 6 1016.2 1015.6 0.0
20/06:00am 17.2 14.9 8.9 58 4.3 SSE 11 11 6 6 1015.7 1015.2 0.0
20/05:30am 17.7 15.8 9.1 57 4.5 SSE 9 9 5 5 1016.0 1015.4 0.0
20/05:00am 18.5 17.0 9.0 54 5.0 SSE 7 11 4 6 1015.7 1015.2 0.0
20/04:30am 19.2 16.8 8.8 51 5.4 SSE 11 13 6 7 1015.5 1015.0 0.0
20/04:00am 19.8 17.1 8.8 49 5.8 SSE 13 17 7 9 1015.5 1015.0 0.0
20/03:30am 20.4 17.6 8.4 46 6.3 SSE 13 17 7 9 1015.6 1015.1 0.0
20/03:00am 20.8 17.7 7.4 42 6.9 SSE 13 15 7 8 1015.5 1015.0 0.0
20/02:30am 21.5 18.2 6.2 37 7.7 SSE 13 20 7 11 1015.6 1015.1 0.0
20/02:00am 22.3 17.9 4.8 32 8.7 SE 17 20 9 11 1015.5 1015.0 0.0
20/01:30am 23.0 18.2 4.5 30 9.2 SE 19 26 10 14 1015.6 1015.1 0.0
20/01:00am 23.4 18.5 5.3 31 9.1 SE 20 28 11 15 1016.0 1015.4 0.0
20/12:30am 24.1 19.0 5.9 31 9.3 SE 22 28 12 15 1016.1 1015.5 0.0
20/12:00am 24.9 18.8 4.6 27 10.2 SSE 26 32 14 17 1016.0 1015.4 0.0
 
Date/Time
CDT
Temp
°C
App
Temp
°C
Dew
Point
Rel
Hum
%
Delta-T
°C
Wind Press
QNH
hPa
Press
MSL
hPa
Rain
since 9 am
mm
Dir
 
Spd
km/h
Gust
km/h
Spd
kts
Gust
kts
19/11:30pm 25.7 19.5 2.4 22 11.3 SSE 24 33 13 18 1016.0 1015.4 0.0
19/11:00pm 26.4 20.3 0.2 18 12.3 SSE 22 32 12 17 1016.2 1015.6 0.0
19/10:30pm 27.2 20.7 0.1 17 12.7 SSE 24 33 13 18 1016.3 1015.7 0.0
19/10:00pm 27.0 22.9 -0.1 17 12.7 SSE 11 15 6 8 1016.0 1015.4 0.0
19/09:30pm 27.4 23.7 0.2 17 12.8 SSE 9 13 5 7 1016.0 1015.4 0.0
19/09:00pm 28.6 24.3 -1.5 14 13.9 S 11 13 6 7 1015.6 1015.1 0.0
19/08:30pm 29.6 24.0 -2.8 12 14.7 S 17 24 9 13 1015.5 1015.0 0.0
19/08:00pm 30.6 24.7 -0.9 13 14.9 SSE 20 28 11 15 1015.2 1014.7 0.0
19/07:30pm 31.3 25.9 -1.5 12 15.5 S 17 32 9 17 1015.1 1014.6 0.0
19/07:00pm 32.2 26.3 -2.0 11 16.1 S 19 28 10 15 1014.8 1014.3 0.0
19/06:30pm 31.9 26.0 -2.2 11 16.0 SSE 19 28 10 15 1014.7 1014.2 0.0
19/06:00pm 32.4 26.9 -1.8 11 16.2 S 17 26 9 14 1014.7 1014.2 0.0
19/05:30pm 32.5 26.8 -0.5 12 16.0 SSW 19 30 10 16 1014.9 1014.4 0.0
19/05:00pm 31.7 26.1 -0.1 13 15.4 SSW 19 30 10 16 1015.1 1014.6 0.0
19/04:30pm 31.3 26.2 0.6 14 15.0 S 17 28 9 15 1015.4 1014.9 0.0
19/04:00pm 31.4 26.7 0.7 14 15.0 S 15 30 8 16 1015.7 1015.2 0.0
19/03:30pm 31.1 25.8 -0.5 13 15.1 SW 17 28 9 15 1016.5 1015.9 0.0
19/03:00pm 30.3 25.2 0.8 15 14.4 SW 17 28 9 15 1016.8 1016.2 0.0
19/02:30pm 30.2 25.2 1.6 16 14.1 SW 17 30 9 16 1017.2 1016.6 0.0
19/02:00pm 29.3 24.6 0.9 16 13.8 SW 15 22 8 12 1017.8 1017.2 0.0
19/01:30pm 28.7 24.6 2.1 18 13.1 WSW 13 24 7 13 1018.1 1017.5 0.0
19/01:00pm 27.6 23.9 2.6 20 12.3 SE 11 20 6 11 1018.5 1018.0 0.0
19/12:30pm 27.2 23.7 3.7 22 11.8 ESE 11 22 6 12 1018.7 1018.2 0.0
19/12:00pm 26.0 22.2 3.9 24 11.0 SSE 13 20 7 11 1018.8 1018.3 0.0
19/11:30am 24.8 20.7 4.5 27 10.2 SSE 15 24 8 13 1018.9 1018.4 0.0
19/11:00am 24.5 20.7 5.8 30 9.6 SSE 15 26 8 14 1019.0 1018.5 0.0
19/10:30am 22.9 18.7 5.8 33 8.7 SE 17 24 9 13 1019.0 1018.5 0.0
19/10:00am 22.3 17.3 6.5 36 8.1 SE 22 32 12 17 1019.1 1018.6 0.0
19/09:30am 21.5 16.7 7.3 40 7.3 SSE 22 28 12 15 1019.2 1018.7 0.0
19/09:00am 20.4 15.0 8.1 45 6.4 S 26 32 14 17 1018.9 1018.4 0.0
19/08:30am 19.4 13.9 9.3 52 5.3 SSE 28 35 15 19 1018.5 1018.0 0.0
19/08:00am 18.5 12.7 9.6 56 4.7 SSE 30 39 16 21 1018.1 1017.5 0.0
19/07:30am 17.7 12.3 9.6 59 4.3 SSE 28 39 15 21 1017.9 1017.3 0.0
19/07:00am 17.3 12.8 10.0 62 3.9 SSE 24 33 13 18 1017.3 1016.7 0.0
19/06:30am 16.9 12.7 9.8 63 3.7 SSE 22 35 12 19 1017.1 1016.5 0.0
19/06:00am 17.0 13.2 9.9 63 3.7 SSE 20 28 11 15 1016.8 1016.2 0.0
19/05:30am 17.3 13.2 10.0 62 3.9 SSE 22 32 12 17 1016.4 1015.8 0.0
19/05:00am 17.6 13.5 10.2 62 3.9 SSE 22 30 12 16 1016.2 1015.6 0.0
19/04:30am 17.9 12.3 10.0 60 4.2 SSE 30 43 16 23 1016.0 1015.4 0.0
19/04:00am 18.2 13.5 10.6 61 4.1 SSE 26 35 14 19 1015.7 1015.2 0.0
19/03:30am 18.7 13.3 10.8 60 4.3 SSE 30 39 16 21 1015.6 1015.1 0.0
19/03:00am 19.1 14.1 10.9 59 4.5 SSE 28 39 15 21 1015.5 1015.0 0.0
19/02:30am 19.5 14.5 10.8 57 4.7 SSE 28 39 15 21 1015.6 1015.1 0.0
19/02:00am 20.0 14.1 11.0 56 4.9 SSE 33 41 18 22 1015.5 1015.0 0.0
19/01:30am 20.6 15.5 10.7 53 5.4 SSE 28 39 15 21 1015.3 1014.8 0.0
19/01:00am 21.9 16.4 10.7 49 6.2 SSE 30 41 16 22 1015.1 1014.6 0.0
19/12:30am 22.7 17.2 10.5 46 6.7 S 30 46 16 25 1015.0 1014.5 0.0
19/12:00am 24.1 19.2 10.0 41 7.8 SSE 26 35 14 19 1014.7 1014.2 0.0
 
Date/Time
CDT
Temp
°C
App
Temp
°C
Dew
Point
Rel
Hum
%
Delta-T
°C
Wind Press
QNH
hPa
Press
MSL
hPa
Rain
since 9 am
mm
Dir
 
Spd
km/h
Gust
km/h
Spd
kts
Gust
kts
18/11:30pm 25.3 20.6 9.2 36 8.8 SSE 24 33 13 18 1014.4 1013.9 0.0
18/11:00pm 27.6 21.7 5.8 25 11.4 S 26 35 14 19 1014.0 1013.5 0.0
18/10:30pm 28.1 23.3 5.6 24 11.7 S 20 30 11 16 1013.6 1013.1 0.0
18/10:00pm 28.5 24.6 5.4 23 12.0 SSW 15 20 8 11 1013.3 1012.8 0.0
18/09:30pm 29.1 24.2 5.2 22 12.5 SSW 20 30 11 16 1013.0 1012.5 0.0
18/09:00pm 29.6 24.8 5.6 22 12.6 SSW 20 30 11 16 1012.9 1012.4 0.0
18/08:30pm 30.3 25.5 5.6 21 13.1 SSW 20 28 11 15 1012.6 1012.1 0.0
18/08:00pm 31.0 25.8 5.4 20 13.5 SSW 22 28 12 15 1012.3 1011.8 0.0
18/07:30pm 31.5 25.8 5.1 19 13.9 SSW 24 35 13 19 1012.0 1011.5 0.0
18/07:00pm 32.3 26.6 5.0 18 14.4 SSW 24 35 13 19 1011.6 1011.1 0.0
18/06:30pm 32.5 26.1 5.1 18 14.6 SSW 28 37 15 20 1011.4 1010.9 0.0
18/06:00pm 33.1 26.8 3.9 16 15.3 SW 26 39 14 21 1011.0 1010.5 0.0
18/05:30pm 33.8 28.6 2.6 14 16.0 SSW 19 30 10 16 1010.9 1010.4 0.0
18/05:00pm 34.0 28.9 2.8 14 16.1 SW 19 33 10 18 1011.0 1010.5 0.0
18/04:30pm 34.1 29.0 2.8 14 16.2 SW 19 39 10 21 1011.1 1010.6 0.0
18/04:00pm 33.6 29.1 4.3 16 15.4 S 17 30 9 16 1011.2 1010.7 0.0
18/03:30pm 34.1 29.1 3.8 15 15.9 WSW 19 30 10 16 1011.4 1010.9 0.0
18/03:00pm 32.9 27.9 3.8 16 15.2 SW 19 33 10 18 1011.5 1011.0 0.0
18/02:30pm 33.0 28.4 3.9 16 15.2 SW 17 30 9 16 1011.6 1011.1 0.0
18/02:00pm 32.8 28.2 3.7 16 15.1 SW 17 28 9 15 1011.7 1011.2 0.0
18/01:30pm 32.4 27.4 3.4 16 15.0 SSW 19 30 10 16 1011.7 1011.2 0.0
18/01:00pm 31.9 26.8 3.0 16 14.8 SW 19 30 10 16 1011.8 1011.3 0.0
18/12:30pm 30.8 25.8 3.8 18 13.9 S 19 30 10 16 1011.8 1011.3 0.0
18/12:00pm 30.2 25.5 3.3 18 13.7 S 17 30 9 16 1011.8 1011.3 0.0
18/11:30am 30.1 26.1 4.7 20 13.2 S 15 24 8 13 1011.7 1011.2 0.0
18/11:00am 29.0 24.6 4.5 21 12.6 S 17 24 9 13 1011.8 1011.3 0.0
18/10:30am 28.1 22.5 5.6 24 11.8 SSE 24 30 13 16 1011.7 1011.2 0.0

Other Formats:

Comma delimited format used in spreadsheet applications
http://www.bom.gov.au/fwo/IDS60801/IDS60801.95658.axf

JavaScript Object Notation format (JSON) in row-major order
http://www.bom.gov.au/fwo/IDS60801/IDS60801.95658.json